PLI302 SLLP-SPJC
Flight info
| Callsign | PLI302 |
|---|---|
| Flight time | N/A |
| Altitude | 36000 |
| Route | ELAKO UM657 JUL UM415 ASOXI |
| Aircraft | R722/M-SDFGRWY/S |
Departure
| Time | 2026-04-22 00:38 |
|---|---|
| Airport | El Alto International Airport (SLLP) |
Arrival
| Time | N/A |
|---|---|
| Airport | Jorge Chávez International Airport (SPJC) |
| Time | Latitude | Longitude | Altitude | Speed | Heading |
|---|---|---|---|---|---|
| 2026-04-22 00:22 | -16.50944 | -68.18013 | 13312 ft | 0 kts | 1° |
| 2026-04-22 00:32 | -16.50942 | -68.18013 | 13339 ft | 0 kts | 346° |
| 2026-04-22 00:32 | -16.50939 | -68.18015 | 13338 ft | 1 kts | 309° |
| 2026-04-22 00:33 | -16.50939 | -68.18021 | 13339 ft | 2 kts | 257° |
| 2026-04-22 00:33 | -16.50970 | -68.18039 | 13338 ft | 7 kts | 172° |
| 2026-04-22 00:33 | -16.50998 | -68.18000 | 13338 ft | 8 kts | 96° |
| 2026-04-22 00:33 | -16.51001 | -68.17937 | 13339 ft | 9 kts | 91° |
| 2026-04-22 00:34 | -16.50993 | -68.17863 | 13338 ft | 11 kts | 80° |
| 2026-04-22 00:34 | -16.50993 | -68.17782 | 13339 ft | 12 kts | 96° |
| 2026-04-22 00:34 | -16.51023 | -68.17701 | 13339 ft | 13 kts | 118° |
| 2026-04-22 00:34 | -16.51075 | -68.17618 | 13337 ft | 14 kts | 129° |
| 2026-04-22 00:35 | -16.51138 | -68.17539 | 13335 ft | 14 kts | 130° |
| 2026-04-22 00:35 | -16.51201 | -68.17462 | 13335 ft | 14 kts | 130° |
| 2026-04-22 00:35 | -16.51272 | -68.17383 | 13330 ft | 16 kts | 147° |
| 2026-04-22 00:35 | -16.51369 | -68.17360 | 13330 ft | 8 kts | 180° |
| 2026-04-22 00:36 | -16.51386 | -68.17365 | 13331 ft | 1 kts | 233° |
| 2026-04-22 00:36 | -16.51391 | -68.17449 | 13328 ft | 34 kts | 272° |
| 2026-04-22 00:36 | -16.51372 | -68.17889 | 13323 ft | 86 kts | 272° |
| 2026-04-22 00:36 | -16.51349 | -68.18681 | 13297 ft | 131 kts | 270° |
| 2026-04-22 00:37 | -16.51321 | -68.19757 | 13253 ft | 166 kts | 271° |
| 2026-04-22 00:37 | -16.51264 | -68.21063 | 13212 ft | 190 kts | 272° |
| 2026-04-22 00:37 | -16.51219 | -68.22511 | 13318 ft | 206 kts | 272° |
| 2026-04-22 00:37 | -16.51161 | -68.24019 | 13680 ft | 215 kts | 273° |
| 2026-04-22 00:38 | -16.51108 | -68.25638 | 13919 ft | 231 kts | 272° |
| 2026-04-22 00:38 | -16.51066 | -68.27352 | 14153 ft | 250 kts | 272° |
| 2026-04-22 00:38 | -16.51000 | -68.29254 | 14390 ft | 275 kts | 272° |
| 2026-04-22 00:38 | -16.50814 | -68.31318 | 14569 ft | 299 kts | 289° |
| 2026-04-22 00:39 | -16.49710 | -68.33207 | 14744 ft | 316 kts | 317° |
| 2026-04-22 00:39 | -16.47966 | -68.34715 | 14969 ft | 331 kts | 324° |
| 2026-04-22 00:39 | -16.46221 | -68.36153 | 16110 ft | 313 kts | 320° |
| 2026-04-22 00:39 | -16.44661 | -68.37743 | 16657 ft | 317 kts | 313° |
| 2026-04-22 00:40 | -16.43206 | -68.39492 | 17118 ft | 320 kts | 311° |
| 2026-04-22 00:40 | -16.41700 | -68.41191 | 17738 ft | 318 kts | 314° |
| 2026-04-22 00:40 | -16.40168 | -68.42794 | 18409 ft | 315 kts | 315° |
| 2026-04-22 00:40 | -16.38638 | -68.44425 | 18756 ft | 316 kts | 313° |
| 2026-04-22 00:41 | -16.37130 | -68.46088 | 19278 ft | 314 kts | 313° |
| 2026-04-22 00:41 | -16.35629 | -68.47731 | 19826 ft | 313 kts | 314° |
| 2026-04-22 00:41 | -16.34092 | -68.49392 | 20055 ft | 324 kts | 314° |
| 2026-04-22 00:41 | -16.32494 | -68.51121 | 20220 ft | 338 kts | 314° |
| 2026-04-22 00:42 | -16.30834 | -68.52924 | 20429 ft | 350 kts | 314° |
| 2026-04-22 00:42 | -16.29727 | -68.54127 | 20897 ft | 345 kts | 314° |
| 2026-04-22 00:42 | -16.27527 | -68.56515 | 21695 ft | 344 kts | 314° |